Time;durP1;ratioP1;P1;durP2;ratioP2;P2;SDS_P1;SDS_P2;PMS_P1;PMS_P2;Temp;Humidity;BMP_temperature;BMP_pressure;BME280_temperature;BME280_humidity;BME280_pressure;Samples;Min_cycle;Max_cycle;Signal;HPM_P1;HPM_P2
2024/01/02 00:00:09;;;;;;;19.40;3.90;;;;;;;;;;5011581;28;20036;-63
2024/01/02 00:02:34;;;;;;;14.23;3.37;;;;;;;;;;5009978;28;20410;-63
2024/01/02 00:05:01;;;;;;;23.10;4.50;;;;;;;;;;5008583;28;20106;-63
2024/01/02 00:07:27;;;;;;;25.10;4.37;;;;;;;;;;5012667;28;20175;-63
2024/01/02 00:09:52;;;;;;;19.93;4.03;;;;;;;;;;5011850;28;20018;-62
2024/01/02 00:12:17;;;;;;;25.17;4.30;;;;;;;;;;5010349;28;20426;-63
2024/01/02 00:14:42;;;;;;;15.63;3.33;;;;;;;;;;5005856;28;20030;-63
2024/01/02 00:17:08;;;;;;;20.07;3.97;;;;;;;;;;5008031;28;20062;-63
2024/01/02 00:19:33;;;;;;;22.70;3.80;;;;;;;;;;5009730;28;20076;-63
2024/01/02 00:21:58;;;;;;;20.30;3.80;;;;;;;;;;5011565;28;20025;-62
2024/01/02 00:24:23;;;;;;;20.13;4.10;;;;;;;;;;5010646;28;20113;-63
2024/01/02 00:26:48;;;;;;;16.00;3.90;;;;;;;;;;5007520;28;20069;-63
2024/01/02 00:29:14;;;;;;;17.10;3.60;;;;;;;;;;5005584;28;20384;-63
2024/01/02 00:31:40;;;;;;;13.27;3.47;;;;;;;;;;5010611;28;20025;-63
2024/01/02 00:34:05;;;;;;;18.07;3.73;;;;;;;;;;5011743;28;20025;-63
2024/01/02 00:36:31;;;;;;;16.17;3.20;;;;;;;;;;5010120;28;20033;-63
2024/01/02 00:38:56;;;;;;;14.73;3.23;;;;;;;;;;5009796;28;20022;-63
2024/01/02 00:41:21;;;;;;;17.77;3.93;;;;;;;;;;5011034;28;20104;-63
2024/01/02 00:43:47;;;;;;;17.30;3.47;;;;;;;;;;5005991;28;20076;-63
2024/01/02 00:46:13;;;;;;;17.37;3.60;;;;;;;;;;5009754;28;20432;-63
2024/01/02 00:48:39;;;;;;;16.77;3.30;;;;;;;;;;5007556;28;20060;-63
2024/01/02 00:51:04;;;;;;;13.00;2.97;;;;;;;;;;5007248;28;20061;-63
2024/01/02 00:53:29;;;;;;;21.90;3.83;;;;;;;;;;5010659;28;20038;-63
2024/01/02 00:55:54;;;;;;;18.33;3.33;;;;;;;;;;5011878;28;20470;-63
2024/01/02 00:58:20;;;;;;;18.20;3.00;;;;;;;;;;5008999;28;20044;-63
2024/01/02 01:00:45;;;;;;;14.37;2.80;;;;;;;;;;5006540;28;20034;-62
2024/01/02 01:03:10;;;;;;;16.03;3.50;;;;;;;;;;5004430;28;20029;-64
2024/01/02 01:05:35;;;;;;;19.37;4.10;;;;;;;;;;5009282;28;20033;-64
2024/01/02 01:08:01;;;;;;;17.27;3.10;;;;;;;;;;5009734;28;20029;-64
2024/01/02 01:10:26;;;;;;;14.93;2.90;;;;;;;;;;5009791;28;20042;-64
2024/01/02 01:12:51;;;;;;;16.77;2.87;;;;;;;;;;4991973;28;20406;-64
2024/01/02 01:15:17;;;;;;;12.67;2.77;;;;;;;;;;5008760;28;20029;-64
2024/01/02 01:17:42;;;;;;;17.90;2.70;;;;;;;;;;5009240;28;20119;-64
2024/01/02 01:20:08;;;;;;;12.90;2.60;;;;;;;;;;5008043;28;20034;-64
2024/01/02 01:22:34;;;;;;;19.10;2.70;;;;;;;;;;5010924;28;20509;-64
2024/01/02 01:24:59;;;;;;;13.47;2.43;;;;;;;;;;5008941;28;20057;-64
2024/01/02 01:27:24;;;;;;;17.27;3.07;;;;;;;;;;5010349;28;20045;-64
2024/01/02 01:29:49;;;;;;;18.93;2.80;;;;;;;;;;5007918;28;20134;-64
2024/01/02 01:32:15;;;;;;;15.83;2.77;;;;;;;;;;5011844;28;20037;-64
2024/01/02 01:34:41;;;;;;;12.03;2.47;;;;;;;;;;5007981;28;20064;-64
2024/01/02 01:37:06;;;;;;;16.67;3.10;;;;;;;;;;5010406;28;20022;-64
2024/01/02 01:39:31;;;;;;;13.13;2.20;;;;;;;;;;5008675;28;20029;-63
2024/01/02 01:41:57;;;;;;;13.90;2.43;;;;;;;;;;5007307;28;20429;-64
2024/01/02 01:44:22;;;;;;;12.67;2.20;;;;;;;;;;5010717;28;20088;-64
2024/01/02 01:46:47;;;;;;;11.43;2.00;;;;;;;;;;5006297;28;20468;-64
2024/01/02 01:49:13;;;;;;;14.30;2.93;;;;;;;;;;5010855;28;20053;-64
2024/01/02 01:51:41;;;;;;;9.53;2.30;;;;;;;;;;5007985;28;20048;-64
2024/01/02 01:54:06;;;;;;;12.27;2.30;;;;;;;;;;5007948;28;20040;-64
2024/01/02 01:56:32;;;;;;;10.57;2.13;;;;;;;;;;5009591;28;20502;-64
2024/01/02 01:58:57;;;;;;;14.03;2.30;;;;;;;;;;5004850;28;20634;-64
2024/01/02 02:01:23;;;;;;;15.80;2.23;;;;;;;;;;5011252;28;20507;-64
2024/01/02 02:03:49;;;;;;;10.40;2.20;;;;;;;;;;5010093;28;20033;-64
2024/01/02 02:06:15;;;;;;;11.40;1.97;;;;;;;;;;5008242;28;20034;-64
2024/01/02 02:08:41;;;;;;;12.77;1.97;;;;;;;;;;5006165;28;20083;-66
2024/01/02 02:11:06;;;;;;;10.73;2.00;;;;;;;;;;5003245;28;20499;-64
2024/01/02 02:13:31;;;;;;;11.17;2.00;;;;;;;;;;5006293;28;20038;-63
2024/01/02 02:15:56;;;;;;;9.87;1.87;;;;;;;;;;5010482;28;20494;-63
2024/01/02 02:18:22;;;;;;;12.57;2.00;;;;;;;;;;5010598;28;20026;-63
2024/01/02 02:20:49;;;;;;;13.17;2.00;;;;;;;;;;5009448;28;20100;-63
2024/01/02 02:23:16;;;;;;;10.47;1.80;;;;;;;;;;5005598;28;20451;-63
2024/01/02 02:25:41;;;;;;;11.20;1.90;;;;;;;;;;5006642;28;20056;-64
2024/01/02 02:28:06;;;;;;;11.07;1.80;;;;;;;;;;5007346;28;20065;-63
2024/01/02 02:30:32;;;;;;;9.60;2.17;;;;;;;;;;5010162;28;20026;-63
2024/01/02 02:32:57;;;;;;;10.73;1.97;;;;;;;;;;5009889;28;20029;-64
2024/01/02 02:35:22;;;;;;;7.57;1.80;;;;;;;;;;5005599;28;20088;-64
2024/01/02 02:37:47;;;;;;;10.13;1.83;;;;;;;;;;5007183;28;20044;-63
2024/01/02 02:40:13;;;;;;;8.20;1.57;;;;;;;;;;5007470;28;20061;-64
2024/01/02 02:42:38;;;;;;;14.93;2.10;;;;;;;;;;5010744;28;20022;-63
2024/01/02 02:45:04;;;;;;;10.23;1.87;;;;;;;;;;5007905;28;20038;-63
2024/01/02 02:47:30;;;;;;;7.97;2.13;;;;;;;;;;5009663;28;20160;-63
2024/01/02 02:49:55;;;;;;;9.77;1.63;;;;;;;;;;5006279;28;20105;-63
2024/01/02 02:52:21;;;;;;;11.80;1.50;;;;;;;;;;5007445;28;20532;-63
2024/01/02 02:54:46;;;;;;;5.43;1.07;;;;;;;;;;5006975;28;20033;-64
2024/01/02 02:57:12;;;;;;;8.07;1.90;;;;;;;;;;5005370;28;20061;-64
2024/01/02 02:59:37;;;;;;;6.20;1.73;;;;;;;;;;5008276;28;20466;-64
2024/01/02 03:02:02;;;;;;;6.70;1.83;;;;;;;;;;5006079;28;20045;-64
2024/01/02 03:04:27;;;;;;;7.13;1.80;;;;;;;;;;5008956;28;20028;-64
2024/01/02 03:06:53;;;;;;;19.03;1.60;;;;;;;;;;5003860;28;20789;-64
2024/01/02 03:09:18;;;;;;;7.60;1.60;;;;;;;;;;5004810;28;20674;-64
2024/01/02 03:11:44;;;;;;;9.37;1.70;;;;;;;;;;5007987;28;20033;-64
2024/01/02 03:14:09;;;;;;;11.37;1.30;;;;;;;;;;5008600;28;20037;-64
2024/01/02 03:16:34;;;;;;;5.50;1.00;;;;;;;;;;5009144;28;20034;-64
2024/01/02 03:19:00;;;;;;;10.17;1.77;;;;;;;;;;5004392;28;20060;-64
2024/01/02 03:21:28;;;;;;;9.40;2.30;;;;;;;;;;5003911;28;20018;-65
2024/01/02 03:23:56;;;;;;;6.40;1.07;;;;;;;;;;5005650;28;20116;-64
2024/01/02 03:26:21;;;;;;;10.33;1.40;;;;;;;;;;5007795;28;20058;-65
2024/01/02 03:28:47;;;;;;;6.43;1.20;;;;;;;;;;5009931;28;20088;-65
2024/01/02 03:31:12;;;;;;;7.43;1.10;;;;;;;;;;5003837;28;20050;-63
2024/01/02 03:33:37;;;;;;;9.10;1.57;;;;;;;;;;5006352;28;20026;-63
2024/01/02 03:36:03;;;;;;;8.10;1.47;;;;;;;;;;5004240;28;20026;-63
2024/01/02 03:38:29;;;;;;;2.10;0.70;;;;;;;;;;5007483;28;20359;-64
2024/01/02 03:40:54;;;;;;;3.93;0.80;;;;;;;;;;5008929;28;20036;-64
2024/01/02 03:43:19;;;;;;;3.93;0.63;;;;;;;;;;5001907;28;20058;-64
2024/01/02 03:45:45;;;;;;;8.53;1.23;;;;;;;;;;5004709;28;20034;-64
2024/01/02 03:48:10;;;;;;;4.87;1.37;;;;;;;;;;5003546;28;20026;-64
2024/01/02 03:50:35;;;;;;;2.53;0.60;;;;;;;;;;5009594;28;20022;-64
2024/01/02 03:53:00;;;;;;;1.40;1.00;;;;;;;;;;5008231;28;20031;-64
2024/01/02 03:55:26;;;;;;;3.90;1.43;;;;;;;;;;5007159;28;20033;-64
2024/01/02 03:57:51;;;;;;;1.90;0.90;;;;;;;;;;5003664;28;20594;-64
2024/01/02 04:00:16;;;;;;;4.57;1.70;;;;;;;;;;5004206;28;20029;-64
2024/01/02 04:02:42;;;;;;;6.33;1.23;;;;;;;;;;5008268;28;20056;-64
2024/01/02 04:05:07;;;;;;;8.07;1.53;;;;;;;;;;5004243;28;20026;-64
2024/01/02 04:07:32;;;;;;;6.80;0.97;;;;;;;;;;5005372;28;20105;-64
2024/01/02 04:09:58;;;;;;;2.20;0.73;;;;;;;;;;5008103;28;20451;-64
2024/01/02 04:12:23;;;;;;;2.90;1.03;;;;;;;;;;5004890;28;20034;-64
2024/01/02 04:14:48;;;;;;;7.17;1.00;;;;;;;;;;5007427;28;20356;-64
2024/01/02 04:17:14;;;;;;;5.43;0.70;;;;;;;;;;5001229;28;20061;-64
2024/01/02 04:19:39;;;;;;;0.63;0.37;;;;;;;;;;5005905;28;20022;-64
2024/01/02 04:22:04;;;;;;;1.03;0.47;;;;;;;;;;5009867;28;20036;-63
2024/01/02 04:24:30;;;;;;;3.50;0.97;;;;;;;;;;5004941;28;20093;-64
2024/01/02 04:26:55;;;;;;;0.30;0.30;;;;;;;;;;5004235;28;20062;-64
2024/01/02 04:29:21;;;;;;;0.20;0.20;;;;;;;;;;5001243;28;20042;-64
2024/01/02 04:31:47;;;;;;;1.03;0.83;;;;;;;;;;5005203;28;20048;-64
2024/01/02 04:34:12;;;;;;;2.30;0.87;;;;;;;;;;5004566;28;20383;-64
2024/01/02 04:36:40;;;;;;;0.50;0.50;;;;;;;;;;5007887;28;20041;-64
2024/01/02 04:39:05;;;;;;;2.13;0.60;;;;;;;;;;5005247;28;20026;-64
2024/01/02 04:41:30;;;;;;;0.23;0.23;;;;;;;;;;5005782;28;20109;-64
2024/01/02 04:43:55;;;;;;;5.73;1.13;;;;;;;;;;5009955;28;20064;-64
2024/01/02 04:46:20;;;;;;;7.13;1.07;;;;;;;;;;5008339;28;20040;-64
2024/01/02 04:48:46;;;;;;;0.30;0.30;;;;;;;;;;5013766;28;20033;-64
2024/01/02 04:51:11;;;;;;;0.20;0.20;;;;;;;;;;5011411;28;20030;-64
2024/01/02 04:53:36;;;;;;;0.10;0.10;;;;;;;;;;5007663;28;20033;-63
2024/01/02 04:56:02;;;;;;;0.20;0.20;;;;;;;;;;5007060;28;20033;-64
2024/01/02 04:58:27;;;;;;;0.30;0.30;;;;;;;;;;5008913;28;20030;-64
2024/01/02 05:00:53;;;;;;;0.60;0.60;;;;;;;;;;5008901;28;20125;-64
2024/01/02 05:03:18;;;;;;;0.30;0.30;;;;;;;;;;5007451;28;20058;-63
2024/01/02 05:05:43;;;;;;;0.40;0.33;;;;;;;;;;4993299;28;20021;-64
2024/01/02 05:08:08;;;;;;;0.50;0.50;;;;;;;;;;5006979;28;20483;-64
2024/01/02 05:10:34;;;;;;;2.77;0.80;;;;;;;;;;5009590;28;20100;-64
2024/01/02 05:12:59;;;;;;;0.10;0.10;;;;;;;;;;5011855;28;20024;-64
2024/01/02 05:15:24;;;;;;;0.10;0.10;;;;;;;;;;5008840;28;20038;-64
2024/01/02 05:17:50;;;;;;;0.20;0.20;;;;;;;;;;5009873;28;20112;-64
2024/01/02 05:20:16;;;;;;;0.37;0.37;;;;;;;;;;5009673;28;20052;-64
2024/01/02 05:22:41;;;;;;;0.17;0.17;;;;;;;;;;5008363;28;20480;-63
2024/01/02 05:25:07;;;;;;;0.20;0.20;;;;;;;;;;5008047;28;20872;-64
2024/01/02 05:27:33;;;;;;;0.10;0.10;;;;;;;;;;5008018;28;20054;-64
2024/01/02 05:29:58;;;;;;;0.13;0.13;;;;;;;;;;5009098;28;20037;-64
2024/01/02 05:32:23;;;;;;;0.20;0.20;;;;;;;;;;5012389;28;20025;-63
2024/01/02 05:34:48;;;;;;;0.20;0.20;;;;;;;;;;5009105;28;20022;-64
2024/01/02 05:37:15;;;;;;;0.20;0.20;;;;;;;;;;5004363;28;20117;-64
2024/01/02 05:39:41;;;;;;;0.20;0.20;;;;;;;;;;5006136;28;20100;-63
2024/01/02 05:42:06;;;;;;;1.03;0.97;;;;;;;;;;5008260;28;20034;-64
2024/01/02 05:44:31;;;;;;;0.67;0.60;;;;;;;;;;5008145;28;20037;-64
2024/01/02 05:46:56;;;;;;;0.17;0.17;;;;;;;;;;5012624;28;20530;-64
2024/01/02 05:49:22;;;;;;;0.10;0.10;;;;;;;;;;5003773;28;20041;-64
2024/01/02 05:51:47;;;;;;;0.50;0.50;;;;;;;;;;5004647;28;20021;-64
2024/01/02 05:54:12;;;;;;;0.10;0.10;;;;;;;;;;5008618;28;20103;-64
2024/01/02 05:56:37;;;;;;;0.10;0.10;;;;;;;;;;5007867;28;20025;-65
2024/01/02 05:59:03;;;;;;;0.20;0.20;;;;;;;;;;5013065;28;20044;-64
2024/01/02 06:01:28;;;;;;;0.20;0.20;;;;;;;;;;5005836;28;20783;-64
2024/01/02 06:03:53;;;;;;;0.20;0.20;;;;;;;;;;5007470;28;20022;-64
2024/01/02 06:06:19;;;;;;;1.60;1.17;;;;;;;;;;5002731;28;20026;-64
2024/01/02 06:08:45;;;;;;;0.30;0.30;;;;;;;;;;5004982;28;20040;-64
2024/01/02 06:11:10;;;;;;;0.20;0.20;;;;;;;;;;5005746;28;20029;-64
2024/01/02 06:13:38;;;;;;;0.47;0.40;;;;;;;;;;5011041;28;20467;-64
2024/01/02 06:16:03;;;;;;;0.30;0.30;;;;;;;;;;5009237;28;20034;-64
2024/01/02 06:18:28;;;;;;;0.20;0.20;;;;;;;;;;5010831;28;20490;-64
2024/01/02 06:20:54;;;;;;;0.60;0.60;;;;;;;;;;5012178;28;20057;-64
2024/01/02 06:23:19;;;;;;;0.40;0.40;;;;;;;;;;5011802;28;20088;-64
2024/01/02 06:25:45;;;;;;;0.20;0.20;;;;;;;;;;5010950;28;20079;-64
2024/01/02 06:28:10;;;;;;;0.10;0.10;;;;;;;;;;5009826;28;20029;-64
2024/01/02 06:30:35;;;;;;;0.27;0.27;;;;;;;;;;5012165;28;20108;-64
2024/01/02 06:33:01;;;;;;;0.20;0.20;;;;;;;;;;5011939;28;20104;-64
2024/01/02 06:35:26;;;;;;;0.23;0.23;;;;;;;;;;5012333;28;20065;-64
2024/01/02 06:37:51;;;;;;;0.27;0.27;;;;;;;;;;5011111;28;20018;-64
2024/01/02 06:40:16;;;;;;;1.20;0.50;;;;;;;;;;5011627;28;20025;-64
2024/01/02 06:42:42;;;;;;;0.20;0.20;;;;;;;;;;5011696;28;20030;-64
2024/01/02 06:45:08;;;;;;;0.30;0.30;;;;;;;;;;5009591;28;20034;-64
2024/01/02 06:47:33;;;;;;;0.20;0.20;;;;;;;;;;5011479;28;20030;-64
2024/01/02 06:49:58;;;;;;;0.20;0.20;;;;;;;;;;5012080;28;20394;-64
2024/01/02 06:52:24;;;;;;;0.20;0.20;;;;;;;;;;5010737;28;20034;-64
2024/01/02 06:54:49;;;;;;;0.10;0.10;;;;;;;;;;5010402;28;20471;-65
2024/01/02 06:57:15;;;;;;;0.30;0.30;;;;;;;;;;5011017;28;20037;-64
2024/01/02 06:59:40;;;;;;;0.20;0.20;;;;;;;;;;5010963;28;20029;-64
2024/01/02 07:02:05;;;;;;;0.60;0.60;;;;;;;;;;5011087;28;20049;-64
2024/01/02 07:04:30;;;;;;;0.20;0.20;;;;;;;;;;5013179;28;20064;-64
2024/01/02 07:06:56;;;;;;;0.10;0.10;;;;;;;;;;5011746;28;20022;-63
2024/01/02 07:09:21;;;;;;;0.50;0.50;;;;;;;;;;5011486;28;20395;-63
2024/01/02 07:11:46;;;;;;;0.40;0.40;;;;;;;;;;5009516;28;20395;-63
2024/01/02 07:14:11;;;;;;;0.73;0.40;;;;;;;;;;5011302;28;20041;-63
2024/01/02 07:16:37;;;;;;;0.20;0.20;;;;;;;;;;5009651;28;20092;-64
2024/01/02 07:19:02;;;;;;;0.13;0.13;;;;;;;;;;5011506;28;20120;-63
2024/01/02 07:21:27;;;;;;;0.20;0.20;;;;;;;;;;5011857;28;20021;-63
2024/01/02 07:23:53;;;;;;;0.10;0.10;;;;;;;;;;5011652;28;20025;-62
2024/01/02 07:26:18;;;;;;;0.10;0.10;;;;;;;;;;5010477;28;20149;-62
2024/01/02 07:28:43;;;;;;;0.50;0.50;;;;;;;;;;5010761;28;20049;-63
2024/01/02 07:31:10;;;;;;;0.20;0.20;;;;;;;;;;5010219;28;20037;-63
2024/01/02 07:33:35;;;;;;;0.77;0.43;;;;;;;;;;5010922;28;20029;-62
2024/01/02 07:36:00;;;;;;;0.20;0.20;;;;;;;;;;5011349;28;20426;-65
2024/01/02 07:38:26;;;;;;;0.23;0.23;;;;;;;;;;5010884;28;20025;-63
2024/01/02 07:40:52;;;;;;;0.37;0.37;;;;;;;;;;5010587;28;20034;-62
2024/01/02 07:43:17;;;;;;;0.20;0.20;;;;;;;;;;5011538;28;20022;-62
2024/01/02 07:45:42;;;;;;;0.30;0.30;;;;;;;;;;5010484;28;20026;-62
2024/01/02 07:48:07;;;;;;;0.20;0.20;;;;;;;;;;5009997;28;20509;-63
2024/01/02 07:50:33;;;;;;;0.30;0.30;;;;;;;;;;4982262;28;20092;-63
2024/01/02 07:52:58;;;;;;;0.23;0.23;;;;;;;;;;5010640;28;20491;-63
2024/01/02 07:55:23;;;;;;;0.20;0.20;;;;;;;;;;5010430;28;20364;-62
2024/01/02 07:57:48;;;;;;;0.10;0.10;;;;;;;;;;5010725;28;20017;-62
2024/01/02 08:00:14;;;;;;;0.10;0.10;;;;;;;;;;5012473;28;20030;-62
2024/01/02 08:02:39;;;;;;;0.10;0.10;;;;;;;;;;5009430;28;20036;-62
2024/01/02 08:05:05;;;;;;;0.10;0.10;;;;;;;;;;5010104;28;20026;-65
2024/01/02 08:07:30;;;;;;;0.20;0.20;;;;;;;;;;5011149;28;20061;-65
2024/01/02 08:09:55;;;;;;;0.20;0.20;;;;;;;;;;5010481;28;20080;-64
2024/01/02 08:12:20;;;;;;;0.30;0.30;;;;;;;;;;5011638;28;20399;-64
2024/01/02 08:14:46;;;;;;;0.30;0.30;;;;;;;;;;5013132;28;20395;-64
2024/01/02 08:17:11;;;;;;;0.10;0.10;;;;;;;;;;5015245;28;20083;-64
2024/01/02 08:19:36;;;;;;;0.53;0.53;;;;;;;;;;5012784;28;20022;-65
2024/01/02 08:22:02;;;;;;;0.20;0.17;;;;;;;;;;5014885;28;20022;-64
2024/01/02 08:24:28;;;;;;;0.20;0.20;;;;;;;;;;5015038;28;20022;-65
2024/01/02 08:26:53;;;;;;;0.40;0.40;;;;;;;;;;5012496;28;20066;-65
2024/01/02 08:29:18;;;;;;;0.10;0.10;;;;;;;;;;5012217;28;20376;-65
2024/01/02 08:31:43;;;;;;;0.20;0.20;;;;;;;;;;5014420;28;20037;-65
2024/01/02 08:34:09;;;;;;;0.20;0.20;;;;;;;;;;5012362;28;20380;-65
2024/01/02 08:36:36;;;;;;;0.20;0.20;;;;;;;;;;5014730;28;20049;-64
2024/01/02 08:39:02;;;;;;;0.20;0.20;;;;;;;;;;5013007;28;20030;-64
2024/01/02 08:41:27;;;;;;;0.10;0.10;;;;;;;;;;5010515;28;20049;-64
2024/01/02 08:43:52;;;;;;;0.10;0.10;;;;;;;;;;5011093;28;20381;-64
2024/01/02 08:46:18;;;;;;;0.20;0.20;;;;;;;;;;5011151;28;20459;-64
2024/01/02 08:48:44;;;;;;;0.20;0.20;;;;;;;;;;5010483;28;20040;-64
2024/01/02 08:51:10;;;;;;;0.20;0.20;;;;;;;;;;5013508;28;20030;-64
2024/01/02 08:53:35;;;;;;;0.23;0.23;;;;;;;;;;5013519;28;20394;-64
2024/01/02 08:56:00;;;;;;;0.10;0.10;;;;;;;;;;5013084;28;20026;-65
2024/01/02 08:58:25;;;;;;;0.30;0.30;;;;;;;;;;5012895;28;20033;-65
2024/01/02 09:00:51;;;;;;;0.10;0.10;;;;;;;;;;5010983;28;20053;-64
2024/01/02 09:03:16;;;;;;;0.20;0.20;;;;;;;;;;5013926;28;20022;-64
2024/01/02 09:05:42;;;;;;;0.30;0.30;;;;;;;;;;5013904;28;20544;-64
2024/01/02 09:08:07;;;;;;;0.20;0.20;;;;;;;;;;5013027;28;20030;-64
2024/01/02 09:10:32;;;;;;;0.10;0.10;;;;;;;;;;5014063;28;20057;-65
2024/01/02 09:12:58;;;;;;;0.10;0.10;;;;;;;;;;5014138;28;20076;-65
2024/01/02 09:15:23;;;;;;;0.20;0.20;;;;;;;;;;5014147;28;20030;-65
2024/01/02 09:17:48;;;;;;;0.33;0.33;;;;;;;;;;5012682;28;20022;-65
2024/01/02 09:20:13;;;;;;;0.17;0.17;;;;;;;;;;5013909;28;20036;-65
2024/01/02 09:22:39;;;;;;;0.20;0.20;;;;;;;;;;5013230;28;20110;-65
2024/01/02 09:25:04;;;;;;;0.40;0.40;;;;;;;;;;5011468;28;20132;-65
2024/01/02 09:27:31;;;;;;;0.20;0.20;;;;;;;;;;5012771;28;20069;-65
2024/01/02 09:29:58;;;;;;;0.13;0.13;;;;;;;;;;5012873;28;20029;-65
2024/01/02 09:32:24;;;;;;;0.17;0.17;;;;;;;;;;5013612;28;20030;-65
2024/01/02 09:34:49;;;;;;;0.77;0.60;;;;;;;;;;5012010;28;20490;-65
2024/01/02 09:37:14;;;;;;;0.20;0.20;;;;;;;;;;5013514;28;20018;-65
2024/01/02 09:39:40;;;;;;;5.47;0.60;;;;;;;;;;5013210;28;20034;-65
2024/01/02 09:42:24;;;;;;;0.10;0.10;;;;;;;;;;5011436;28;20026;-65
2024/01/02 09:44:52;;;;;;;0.20;0.20;;;;;;;;;;5012613;28;20049;-64
2024/01/02 09:47:36;;;;;;;0.20;0.20;;;;;;;;;;5013216;28;20433;-65
2024/01/02 09:50:06;;;;;;;0.10;0.10;;;;;;;;;;5012826;28;20434;-65
2024/01/02 09:53:04;;;;;;;0.20;0.20;;;;;;;;;;5011358;28;20640;-65
2024/01/02 09:55:35;;;;;;;0.20;0.20;;;;;;;;;;4975935;28;20100;-65
2024/01/02 09:58:04;;;;;;;0.20;0.20;;;;;;;;;;5014719;28;20060;-65
2024/01/02 10:00:36;;;;;;;0.20;0.20;;;;;;;;;;5013072;28;20411;-65
2024/01/02 10:03:07;;;;;;;0.13;0.13;;;;;;;;;;5013102;28;20034;-65
2024/01/02 10:05:42;;;;;;;0.20;0.20;;;;;;;;;;5007056;28;20029;-65
2024/01/02 10:08:27;;;;;;;0.13;0.13;;;;;;;;;;5007075;28;20678;-65
2024/01/02 10:10:52;;;;;;;0.53;0.53;;;;;;;;;;5011595;28;20069;-65
2024/01/02 10:13:22;;;;;;;0.30;0.27;;;;;;;;;;5012088;28;20426;-64
2024/01/02 10:15:59;;;;;;;0.30;0.30;;;;;;;;;;5011040;28;20030;-65
2024/01/02 10:18:37;;;;;;;0.10;0.10;;;;;;;;;;5015362;28;20103;-65
2024/01/02 10:21:18;;;;;;;0.17;0.17;;;;;;;;;;5011566;28;20048;-65
2024/01/02 10:23:54;;;;;;;0.20;0.20;;;;;;;;;;5010530;28;20017;-65
2024/01/02 10:26:21;;;;;;;0.43;0.43;;;;;;;;;;5010114;28;20046;-64
2024/01/02 10:28:48;;;;;;;0.10;0.10;;;;;;;;;;5012005;28;20502;-64
2024/01/02 10:31:18;;;;;;;0.70;0.70;;;;;;;;;;5010597;28;20053;-65
2024/01/02 10:33:51;;;;;;;0.10;0.10;;;;;;;;;;5011623;28;20045;-65
2024/01/02 10:36:20;;;;;;;0.10;0.10;;;;;;;;;;5011396;28;20091;-65
2024/01/02 10:38:53;;;;;;;1.53;0.73;;;;;;;;;;5011218;28;20355;-65
2024/01/02 10:41:37;;;;;;;0.20;0.20;;;;;;;;;;5009816;28;20026;-64
2024/01/02 10:44:22;;;;;;;0.20;0.20;;;;;;;;;;5011290;28;20018;-65
2024/01/02 10:46:50;;;;;;;0.20;0.20;;;;;;;;;;4990535;28;20088;-64
2024/01/02 10:49:22;;;;;;;0.10;0.10;;;;;;;;;;5012017;28;20050;-65
2024/01/02 10:51:50;;;;;;;0.77;0.63;;;;;;;;;;5009638;28;20026;-65
2024/01/02 10:54:40;;;;;;;0.17;0.17;;;;;;;;;;5011386;28;20034;-65
2024/01/02 10:57:08;;;;;;;0.43;0.43;;;;;;;;;;5010809;28;20029;-63
2024/01/02 10:59:42;;;;;;;0.27;0.20;;;;;;;;;;5010551;28;20105;-65
2024/01/02 11:02:13;;;;;;;0.30;0.30;;;;;;;;;;5011832;28;20479;-65
2024/01/02 11:04:39;;;;;;;0.20;0.20;;;;;;;;;;5011385;28;20129;-63
2024/01/02 11:07:09;;;;;;;0.57;0.57;;;;;;;;;;5012579;28;20030;-63
2024/01/02 11:09:43;;;;;;;0.33;0.33;;;;;;;;;;5011944;28;20447;-64
2024/01/02 11:12:09;;;;;;;0.23;0.23;;;;;;;;;;5010542;28;20552;-65
2024/01/02 11:14:35;;;;;;;0.20;0.20;;;;;;;;;;5009370;28;20049;-65
2024/01/02 11:17:02;;;;;;;0.30;0.30;;;;;;;;;;5011298;28;20030;-64
2024/01/02 11:19:31;;;;;;;0.30;0.30;;;;;;;;;;5011729;28;20751;-64
2024/01/02 11:22:17;;;;;;;0.43;0.40;;;;;;;;;;5011800;28;20422;-63
2024/01/02 11:24:50;;;;;;;0.77;0.57;;;;;;;;;;5011301;28;20901;-63
2024/01/02 11:27:18;;;;;;;0.47;0.30;;;;;;;;;;5010829;28;20065;-63
2024/01/02 11:29:43;;;;;;;0.27;0.27;;;;;;;;;;5010405;28;20048;-63
2024/01/02 11:32:13;;;;;;;0.20;0.20;;;;;;;;;;5009801;28;20042;-63
2024/01/02 11:34:44;;;;;;;0.20;0.20;;;;;;;;;;5009861;28;20052;-63
2024/01/02 11:37:10;;;;;;;0.63;0.63;;;;;;;;;;5010203;28;20038;-64
2024/01/02 11:39:35;;;;;;;0.20;0.20;;;;;;;;;;5011223;28;20088;-63
2024/01/02 11:42:00;;;;;;;0.67;0.57;;;;;;;;;;5010836;28;20030;-63
2024/01/02 11:44:28;;;;;;;0.20;0.20;;;;;;;;;;5011142;28;20093;-63
2024/01/02 11:46:57;;;;;;;0.10;0.10;;;;;;;;;;5011105;28;20566;-63
2024/01/02 11:49:24;;;;;;;0.93;0.60;;;;;;;;;;5014861;28;20101;-63
2024/01/02 11:51:55;;;;;;;0.10;0.10;;;;;;;;;;5015584;28;20437;-63
2024/01/02 11:54:30;;;;;;;0.45;0.40;;;;;;;;;;5014537;28;20483;-63
2024/01/02 11:56:55;;;;;;;0.30;0.30;;;;;;;;;;4995444;28;20026;-63
2024/01/02 11:59:20;;;;;;;0.20;0.20;;;;;;;;;;5014167;28;20026;-63
2024/01/02 12:01:52;;;;;;;0.60;0.60;;;;;;;;;;5014459;28;20332;-63
2024/01/02 12:04:17;;;;;;;9.93;1.52;;;;;;;;;;5014453;28;20144;-64
2024/01/02 12:06:48;;;;;;;0.10;0.10;;;;;;;;;;5014529;28;20493;-63
2024/01/02 12:09:17;;;;;;;0.10;0.10;;;;;;;;;;5013921;28;20026;-63
2024/01/02 12:11:46;;;;;;;0.20;0.20;;;;;;;;;;5015298;28;20033;-63
2024/01/02 12:14:12;;;;;;;0.20;0.20;;;;;;;;;;5014096;28;20049;-63
2024/01/02 12:16:39;;;;;;;0.60;0.60;;;;;;;;;;5014258;28;20022;-63
2024/01/02 12:19:06;;;;;;;0.77;0.47;;;;;;;;;;5015604;28;20026;-63
2024/01/02 12:21:33;;;;;;;1.03;0.93;;;;;;;;;;5014535;28;20613;-63
2024/01/02 12:24:01;;;;;;;0.00;0.00;;;;;;;;;;5015534;28;20037;-63
2024/01/02 12:26:26;;;;;;;0.20;0.20;;;;;;;;;;5014629;28;20502;-63
2024/01/02 12:28:52;;;;;;;6.03;2.10;;;;;;;;;;5014505;28;20026;-63
2024/01/02 12:31:21;;;;;;;0.40;0.40;;;;;;;;;;5013751;28;20029;-63
2024/01/02 12:33:48;;;;;;;0.27;0.27;;;;;;;;;;5011847;28;20021;-62
2024/01/02 12:36:28;;;;;;;0.20;0.20;;;;;;;;;;5014241;28;20548;-63
2024/01/02 12:38:55;;;;;;;1.10;0.73;;;;;;;;;;5013039;28;20370;-63
2024/01/02 12:41:24;;;;;;;0.47;0.20;;;;;;;;;;5013115;28;20025;-62
2024/01/02 12:43:52;;;;;;;0.20;0.20;;;;;;;;;;5009853;28;20046;-62
2024/01/02 12:46:20;;;;;;;0.20;0.20;;;;;;;;;;5014078;28;20117;-62
2024/01/02 12:49:09;;;;;;;0.17;0.17;;;;;;;;;;5012794;28;20109;-62
2024/01/02 12:51:35;;;;;;;1.20;0.83;;;;;;;;;;5008672;28;20108;-62
2024/01/02 12:54:01;;;;;;;0.30;0.30;;;;;;;;;;5013092;28;20037;-62
2024/01/02 12:56:31;;;;;;;0.30;0.20;;;;;;;;;;5013658;28;20026;-62
2024/01/02 12:59:00;;;;;;;0.57;0.40;;;;;;;;;;5014157;28;20022;-62
2024/01/02 13:01:25;;;;;;;0.17;0.17;;;;;;;;;;5015491;28;20038;-62
2024/01/02 13:03:50;;;;;;;0.10;0.10;;;;;;;;;;5013895;28;20061;-62
2024/01/02 13:06:16;;;;;;;1.00;0.57;;;;;;;;;;5014151;28;20105;-62
2024/01/02 13:08:42;;;;;;;2.20;1.13;;;;;;;;;;5014211;28;20022;-62
2024/01/02 13:11:07;;;;;;;0.20;0.20;;;;;;;;;;5010276;28;20029;-62
2024/01/02 13:13:33;;;;;;;0.50;0.30;;;;;;;;;;5013527;28;20026;-62
2024/01/02 13:16:00;;;;;;;1.13;0.60;;;;;;;;;;5013395;28;20022;-62
2024/01/02 13:18:26;;;;;;;0.47;0.40;;;;;;;;;;5013886;28;20026;-62
2024/01/02 13:20:55;;;;;;;0.70;0.57;;;;;;;;;;5013955;28;20032;-62
2024/01/02 13:23:21;;;;;;;0.50;0.47;;;;;;;;;;5013564;28;20018;-62
2024/01/02 13:25:47;;;;;;;0.40;0.40;;;;;;;;;;5011164;28;20041;-62
2024/01/02 13:28:22;;;;;;;0.87;0.57;;;;;;;;;;5011261;28;20037;-62
2024/01/02 13:30:49;;;;;;;0.50;0.50;;;;;;;;;;5012159;28;20021;-62
2024/01/02 13:33:15;;;;;;;0.73;0.67;;;;;;;;;;5013049;28;20125;-62
2024/01/02 13:35:45;;;;;;;0.23;0.23;;;;;;;;;;5012642;28;20022;-62
2024/01/02 13:38:11;;;;;;;0.30;0.30;;;;;;;;;;5013258;28;20058;-63
2024/01/02 13:40:36;;;;;;;0.80;0.67;;;;;;;;;;5012834;28;20046;-62
2024/01/02 13:43:03;;;;;;;0.77;0.47;;;;;;;;;;5011943;28;20021;-63
2024/01/02 13:45:35;;;;;;;0.77;0.77;;;;;;;;;;5010168;28;20490;-62
2024/01/02 13:48:10;;;;;;;0.70;0.68;;;;;;;;;;5014030;28;20026;-62
2024/01/02 13:50:36;;;;;;;0.10;0.10;;;;;;;;;;5013320;28;20148;-62
2024/01/02 13:53:04;;;;;;;0.37;0.37;;;;;;;;;;5011588;28;20116;-62
2024/01/02 13:55:29;;;;;;;0.73;0.73;;;;;;;;;;5012486;28;20030;-62
2024/01/02 13:57:54;;;;;;;0.97;0.40;;;;;;;;;;5011536;28;20394;-62
2024/01/02 14:00:20;;;;;;;0.30;0.30;;;;;;;;;;5014517;28;20033;-62
2024/01/02 14:02:56;;;;;;;0.60;0.60;;;;;;;;;;5011147;28;20026;-62
2024/01/02 14:05:22;;;;;;;0.10;0.10;;;;;;;;;;5013052;28;20022;-63
2024/01/02 14:07:48;;;;;;;0.67;0.67;;;;;;;;;;5012115;28;20030;-63
2024/01/02 14:10:16;;;;;;;0.20;0.20;;;;;;;;;;5011544;28;20434;-63
2024/01/02 14:12:44;;;;;;;0.20;0.20;;;;;;;;;;5009215;28;20022;-63
2024/01/02 14:15:12;;;;;;;1.20;0.97;;;;;;;;;;5011742;28;20080;-63
2024/01/02 14:17:38;;;;;;;12.93;0.50;;;;;;;;;;5011220;28;20374;-63
2024/01/02 14:20:08;;;;;;;1.20;0.83;;;;;;;;;;5012754;28;20087;-65
2024/01/02 14:22:39;;;;;;;1.20;0.63;;;;;;;;;;5013867;28;20014;-65
2024/01/02 14:25:13;;;;;;;1.10;0.65;;;;;;;;;;5011519;28;20030;-65
2024/01/02 14:27:43;;;;;;;3.23;1.70;;;;;;;;;;5012250;28;20056;-64
2024/01/02 14:30:12;;;;;;;0.40;0.40;;;;;;;;;;5011698;28;20028;-65
2024/01/02 14:32:37;;;;;;;0.13;0.13;;;;;;;;;;5011220;28;20026;-65
2024/01/02 14:35:15;;;;;;;0.30;0.30;;;;;;;;;;5011651;28;20437;-65
2024/01/02 14:37:40;;;;;;;0.30;0.30;;;;;;;;;;5012029;28;20430;-64